Time;durP1;ratioP1;P1;durP2;ratioP2;P2;SDS_P1;SDS_P2;PMS_P1;PMS_P2;Temp;Humidity;BMP_temperature;BMP_pressure;BME280_temperature;BME280_humidity;BME280_pressure;Samples;Min_cycle;Max_cycle;Signal;HPM_P1;HPM_P2
2022/08/11 00:01:48;;;;;;;6.38;4.97;;;;;;;19.47;100.00;94602.16;5050462;28;20217;-63
2022/08/11 00:04:15;;;;;;;7.47;4.78;;;;;;;19.43;100.00;94596.59;5050350;28;20181;-62
2022/08/11 00:06:44;;;;;;;6.10;4.68;;;;;;;19.43;100.00;94591.44;5032409;28;20233;-63
2022/08/11 00:09:17;;;;;;;6.75;4.63;;;;;;;19.51;100.00;94604.19;5050496;28;20659;-62
2022/08/11 00:11:45;;;;;;;6.15;5.05;;;;;;;19.58;100.00;94606.81;5050496;28;20213;-59
2022/08/11 00:14:23;;;;;;;6.45;4.45;;;;;;;19.61;100.00;94599.50;5050321;28;20747;-60
2022/08/11 00:16:57;;;;;;;6.10;4.82;;;;;;;19.58;100.00;94597.28;5050273;28;20221;-61
2022/08/11 00:19:27;;;;;;;4.40;4.07;;;;;;;19.50;100.00;94594.84;5050306;28;20199;-60
2022/08/11 00:21:54;;;;;;;5.57;4.40;;;;;;;19.51;100.00;94599.03;5032413;28;20316;-64
2022/08/11 00:24:22;;;;;;;4.60;4.20;;;;;;;19.42;100.00;94600.13;5050354;28;20185;-63
2022/08/11 00:26:50;;;;;;;7.60;4.45;;;;;;;19.38;100.00;94598.91;5032465;28;20213;-63
2022/08/11 00:29:16;;;;;;;6.57;4.72;;;;;;;19.32;100.00;94603.97;5050168;28;20192;-60
2022/08/11 00:31:49;;;;;;;4.93;4.53;;;;;;;19.29;100.00;94593.03;5050029;28;20605;-60
2022/08/11 00:34:19;;;;;;;4.95;4.45;;;;;;;19.26;100.00;94601.16;5050306;28;20189;-61
2022/08/11 00:36:50;;;;;;;6.18;4.60;;;;;;;19.22;100.00;94589.59;5050033;28;20213;-59
2022/08/11 00:39:20;;;;;;;5.22;4.72;;;;;;;19.22;100.00;94581.88;5050121;28;20182;-63
2022/08/11 00:42:15;;;;;;;5.30;4.78;;;;;;;19.27;100.00;94581.31;5050068;28;20232;-63
2022/08/11 00:45:02;;;;;;;5.20;4.70;;;;;;;19.22;100.00;94593.97;5032018;28;20263;-63
2022/08/11 00:47:30;;;;;;;5.43;5.00;;;;;;;19.17;100.00;94591.13;5053453;28;20206;-63
2022/08/11 00:50:01;;;;;;;4.97;4.57;;;;;;;19.12;100.00;94603.78;5053372;28;20550;-62
2022/08/11 00:55:25;;;;;;;5.68;4.57;;;;;;;19.09;100.00;94592.03;5059431;22;20775;-62
2022/08/11 00:58:05;;;;;;;6.45;4.78;;;;;;;19.09;100.00;94591.25;5022469;28;20683;-63
2022/08/11 01:01:00;;;;;;;6.32;4.97;;;;;;;19.04;100.00;94598.72;5033423;28;20209;-62
2022/08/11 01:06:31;;;;;;;5.53;5.00;;;;;;;19.00;100.00;94600.88;5059828;22;20685;-62
2022/08/11 01:09:35;;;;;;;5.70;5.13;;;;;;;19.01;100.00;94599.88;5035375;28;20731;-62
2022/08/11 01:12:25;;;;;;;5.55;4.65;;;;;;;19.01;100.00;94599.88;5016987;28;20228;-63
2022/08/11 01:15:12;;;;;;;9.05;5.28;;;;;;;19.07;100.00;94600.94;5053545;28;20198;-62
2022/08/11 01:18:15;;;;;;;5.75;5.15;;;;;;;19.07;100.00;94594.00;5052892;28;20208;-61
2022/08/11 01:23:40;;;;;;;6.65;5.10;;;;;;;19.03;100.00;94589.38;5058683;22;20655;-62
2022/08/11 01:26:15;;;;;;;5.82;5.20;;;;;;;19.08;100.00;94593.03;5052937;28;20225;-62
2022/08/11 01:29:18;;;;;;;5.43;4.90;;;;;;;19.07;100.00;94590.63;5052786;28;20647;-62
2022/08/11 01:31:55;;;;;;;5.15;4.72;;;;;;;19.07;100.00;94585.47;5058713;22;20263;-60
2022/08/11 01:35:18;;;;;;;10.85;9.75;;;;;;;18.93;100.00;94581.97;5053004;28;20765;-61
2022/08/11 01:38:31;;;;;;;8.02;6.63;;;;;;;19.02;100.00;94582.66;4952683;29;20308;-63
2022/08/11 01:41:02;;;;;;;6.53;5.38;;;;;;;18.95;100.00;94590.31;4869591;29;20239;-62
2022/08/11 01:46:52;;;;;;;5.68;4.72;;;;;;;18.92;100.00;94582.16;5033408;28;20718;-62
2022/08/11 01:49:30;;;;;;;7.40;5.53;;;;;;;18.94;100.00;94585.34;5032584;28;20194;-62
2022/08/11 01:52:18;;;;;;;9.35;5.45;;;;;;;18.96;100.00;94579.03;5014722;28;20610;-62
2022/08/11 01:55:22;;;;;;;5.50;4.95;;;;;;;19.01;100.00;94579.28;5014698;28;20218;-61
2022/08/11 01:58:14;;;;;;;6.50;4.85;;;;;;;19.06;100.00;94578.72;5014627;28;20734;-62
2022/08/11 02:00:52;;;;;;;7.78;5.47;;;;;;;19.10;100.00;94574.81;5032560;28;20229;-62
2022/08/11 02:03:52;;;;;;;6.38;5.35;;;;;;;19.01;100.00;94581.03;5032814;28;20269;-60
2022/08/11 02:09:23;;;;;;;13.13;11.23;;;;;;;19.04;100.00;94581.50;5032488;28;20182;-62
2022/08/11 02:11:52;;;;;;;9.13;6.72;;;;;;;18.92;100.00;94577.81;5032494;28;20240;-62
2022/08/11 02:14:26;;;;;;;9.02;7.60;;;;;;;18.90;100.00;94581.53;5032211;28;20186;-63
2022/08/11 02:17:17;;;;;;;8.32;7.15;;;;;;;18.82;100.00;94574.72;5032252;28;20308;-63
2022/08/11 02:23:44;;;;;;;6.07;5.47;;;;;;;19.04;100.00;94578.13;5032384;28;20608;-62
2022/08/11 02:26:22;;;;;;;6.60;5.20;;;;;;;19.18;100.00;94588.38;5014317;28;20702;-64
2022/08/11 02:28:56;;;;;;;5.82;5.15;;;;;;;19.53;100.00;94583.38;5032028;28;20277;-61
2022/08/11 02:34:14;;;;;;;5.90;5.30;;;;;;;19.16;100.00;94584.38;5031888;28;20189;-60
2022/08/11 02:36:53;;;;;;;6.88;5.32;;;;;;;19.06;100.00;94589.03;5032140;28;20213;-61
2022/08/11 02:39:23;;;;;;;7.75;6.53;;;;;;;18.95;100.00;94589.50;5031883;28;20190;-62
2022/08/11 02:42:24;;;;;;;8.05;5.13;;;;;;;19.05;100.00;94583.09;5013837;28;20205;-59
2022/08/11 02:45:11;;;;;;;6.00;5.40;;;;;;;19.09;100.00;94579.16;5031769;28;20569;-63
2022/08/11 02:51:13;;;;;;;5.47;4.97;;;;;;;19.01;100.00;94584.44;5041602;22;21803;-64
2022/08/11 02:53:56;;;;;;;6.18;5.28;;;;;;;19.02;100.00;94585.22;5051696;28;20201;-61
2022/08/11 02:56:53;;;;;;;6.25;5.65;;;;;;;18.88;100.00;94583.50;5051692;28;20205;-64
2022/08/11 02:59:50;;;;;;;5.85;5.25;;;;;;;18.76;100.00;94580.59;5051845;28;20197;-64
2022/08/11 03:02:32;;;;;;;6.65;5.63;;;;;;;18.73;100.00;94587.88;5051951;28;20236;-60
2022/08/11 03:04:57;;;;;;;6.20;5.60;;;;;;;18.62;100.00;94584.00;5051490;28;20221;-62
2022/08/11 03:07:53;;;;;;;5.85;5.35;;;;;;;18.52;100.00;94582.69;5051671;28;20233;-61
2022/08/11 03:10:28;;;;;;;5.70;5.05;;;;;;;18.61;100.00;94594.47;5050733;28;20201;-63
2022/08/11 03:19:26;;;;;;;6.20;5.60;;;;;;;18.39;100.00;94599.53;5051589;28;20259;-63
2022/08/11 03:22:11;;;;;;;7.53;5.30;;;;;;;18.37;100.00;94595.53;5033442;28;20683;-61
2022/08/11 03:24:58;;;;;;;6.32;5.38;;;;;;;18.41;100.00;94589.84;5051081;28;20578;-59
2022/08/11 03:27:44;;;;;;;5.68;5.07;;;;;;;18.49;100.00;94595.91;5033370;28;20609;-63
2022/08/11 03:30:51;;;;;;;6.22;5.63;;;;;;;18.47;100.00;94585.78;5033219;28;20284;-62
2022/08/11 03:36:46;;;;;;;6.00;5.40;;;;;;;19.19;100.00;94586.56;5051009;28;20227;-59
2022/08/11 03:39:33;;;;;;;15.65;8.30;;;;;;;19.48;100.00;94598.59;5050826;28;20194;-60
2022/08/11 03:42:23;;;;;;;7.55;6.75;;;;;;;19.66;100.00;94602.31;5050659;28;20213;-60
2022/08/11 03:45:22;;;;;;;8.27;5.68;;;;;;;19.84;100.00;94589.75;5033002;28;20685;-59
2022/08/11 03:48:06;;;;;;;11.00;7.68;;;;;;;19.90;100.00;94590.78;5050514;28;20262;-61
2022/08/11 03:50:52;;;;;;;7.82;5.28;;;;;;;20.04;100.00;94595.84;5050919;28;20201;-61
2022/08/11 03:53:29;;;;;;;5.50;5.00;;;;;;;20.18;100.00;94611.44;5050626;28;20190;-58
2022/08/11 03:56:22;;;;;;;5.60;5.10;;;;;;;20.35;100.00;94620.50;5050459;28;20697;-61
2022/08/11 03:59:32;;;;;;;8.23;5.85;;;;;;;20.48;100.00;94631.69;5050657;28;20189;-60
2022/08/11 04:02:28;;;;;;;5.82;5.13;;;;;;;20.51;100.00;94638.28;5012441;28;20228;-60
2022/08/11 04:05:12;;;;;;;5.47;4.93;;;;;;;20.63;100.00;94639.31;5032585;28;20189;-61
2022/08/11 04:08:29;;;;;;;5.68;5.18;;;;;;;20.66;100.00;94636.38;5032721;28;20193;-59
2022/08/11 04:11:31;;;;;;;6.40;4.57;;;;;;;20.79;100.00;94668.25;4995809;28;20217;-60
2022/08/11 04:17:35;;;;;;;5.70;5.03;;;;;;;20.71;100.00;94655.47;5049686;28;20268;-61
2022/08/11 04:20:00;;;;;;;6.70;5.60;;;;;;;20.70;99.65;94660.84;5050266;28;20720;-61
2022/08/11 04:22:36;;;;;;;6.32;5.72;;;;;;;20.77;100.00;94648.75;5053477;28;20205;-61
2022/08/11 04:25:15;;;;;;;7.15;5.68;;;;;;;20.70;99.66;94658.25;5053734;28;20185;-61
2022/08/11 04:28:02;;;;;;;5.40;4.90;;;;;;;20.79;99.58;94651.94;5035946;28;20697;-60
2022/08/11 04:30:33;;;;;;;5.90;5.25;;;;;;;20.58;100.00;94634.72;5059522;22;20201;-59
2022/08/11 04:33:17;;;;;;;6.03;5.45;;;;;;;20.50;100.00;94637.47;5053637;28;20186;-62
2022/08/11 04:36:08;;;;;;;8.50;5.32;;;;;;;20.56;100.00;94635.94;5053518;28;20220;-61
2022/08/11 04:38:52;;;;;;;9.80;6.10;;;;;;;20.44;100.00;94638.22;5053509;28;20293;-59
2022/08/11 04:45:05;;;;;;;12.35;7.47;;;;;;;20.55;99.71;94652.41;5053615;28;20197;-62
2022/08/11 05:03:42;;;;;;;8.35;5.55;;;;;;;20.84;99.15;94665.88;5053267;28;20200;-63
2022/08/11 05:06:28;;;;;;;9.88;7.10;;;;;;;20.85;98.50;94682.97;5053324;28;20240;-61
2022/08/11 05:09:25;;;;;;;10.90;6.45;;;;;;;20.85;98.70;94664.09;5052998;28;20197;-61
2022/08/11 05:12:28;;;;;;;7.57;6.47;;;;;;;20.98;98.22;94664.16;5053123;28;20774;-62
2022/08/11 05:35:02;;;;;;;9.43;5.93;;;;;;;21.51;93.82;94699.56;5052750;28;20196;-65
2022/08/11 05:37:27;;;;;;;8.00;6.28;;;;;;;21.46;93.92;94696.78;5052608;28;20270;-61
2022/08/11 05:56:58;;;;;;;8.07;6.30;;;;;;;21.95;89.27;94742.28;5052485;28;20635;-61
2022/08/11 05:59:29;;;;;;;6.60;5.93;;;;;;;21.87;89.42;94726.94;5034420;28;20197;-62
2022/08/11 06:02:06;;;;;;;6.68;5.57;;;;;;;21.77;89.92;94713.56;5052499;28;20292;-63
2022/08/11 06:04:33;;;;;;;9.13;6.13;;;;;;;21.67;90.55;94701.00;5052327;28;20268;-63
2022/08/11 06:07:02;;;;;;;8.25;6.57;;;;;;;21.72;92.79;94667.56;5052455;28;20292;-65
2022/08/11 06:09:46;;;;;;;11.20;7.55;;;;;;;21.97;92.79;94663.44;5052133;28;20655;-62
2022/08/11 06:12:24;;;;;;;8.88;5.85;;;;;;;22.45;88.62;94752.09;5052384;28;20215;-60
2022/08/11 06:14:54;;;;;;;7.97;6.88;;;;;;;22.59;88.89;94729.59;5052139;28;20192;-63
2022/08/11 06:17:26;;;;;;;8.60;5.90;;;;;;;22.89;86.15;94762.66;5052166;28;20213;-60
2022/08/11 06:19:59;;;;;;;10.32;5.65;;;;;;;22.89;84.71;94767.84;5034074;28;20607;-61
2022/08/11 06:22:26;;;;;;;7.45;5.43;;;;;;;22.67;85.51;94747.50;5052096;28;20705;-63
2022/08/11 06:25:00;;;;;;;7.47;5.55;;;;;;;22.97;83.33;94784.97;5034059;28;20335;-63
2022/08/11 06:27:30;;;;;;;6.65;5.18;;;;;;;23.17;81.66;94796.09;5051787;28;20296;-60
2022/08/11 06:29:57;;;;;;;7.50;6.05;;;;;;;23.17;79.25;94824.63;5051733;28;20580;-64
2022/08/11 06:32:25;;;;;;;7.45;5.82;;;;;;;23.35;81.27;94781.50;5051875;28;20208;-62
2022/08/11 06:34:51;;;;;;;6.80;6.13;;;;;;;23.35;78.23;94838.59;5051697;28;20197;-63
2022/08/11 06:37:26;;;;;;;5.43;4.93;;;;;;;23.29;78.95;94821.22;5051691;28;20229;-63
2022/08/11 06:40:07;;;;;;;8.45;5.53;;;;;;;23.35;78.04;94819.66;5033625;28;20219;-63
2022/08/11 06:42:44;;;;;;;8.15;6.10;;;;;;;23.38;80.04;94777.72;5052109;28;20264;-64
2022/08/11 06:45:23;;;;;;;6.40;5.15;;;;;;;23.66;79.28;94796.38;5050932;28;20205;-62
2022/08/11 06:47:49;;;;;;;5.97;5.05;;;;;;;23.76;76.36;94845.28;5051492;28;20205;-63
2022/08/11 06:53:08;;;;;;;5.53;5.03;;;;;;;23.72;76.89;94821.53;5051702;28;20725;-64
2022/08/11 07:01:35;;;;;;;8.88;4.78;;;;;;;23.89;75.98;94827.06;5052422;28;20300;-63
2022/08/11 07:04:08;;;;;;;5.63;4.90;;;;;;;23.84;73.32;94860.63;5051353;28;20685;-60
2022/08/11 07:15:55;;;;;;;4.40;4.00;;;;;;;24.29;71.65;94885.63;5051396;28;20204;-62
2022/08/11 07:30:01;;;;;;;4.47;3.58;;;;;;;24.82;65.74;94928.56;5051008;28;20189;-59
2022/08/11 07:32:36;;;;;;;5.82;4.00;;;;;;;24.92;65.21;94939.31;5051289;28;20244;-60
2022/08/11 07:35:12;;;;;;;5.13;3.90;;;;;;;24.96;66.11;94908.44;5051255;28;20666;-61
2022/08/11 07:37:41;;;;;;;4.57;4.07;;;;;;;25.05;65.72;94916.78;5050982;28;20208;-64
2022/08/11 07:40:07;;;;;;;4.35;3.95;;;;;;;24.92;63.57;94956.72;5050847;28;20276;-64
2022/08/11 07:42:34;;;;;;;4.45;4.05;;;;;;;24.88;62.89;94968.53;5032791;28;20196;-64
2022/08/11 07:53:17;;;;;;;4.22;3.17;;;;;;;24.84;64.63;94899.72;5051102;28;20258;-62
2022/08/11 07:55:43;;;;;;;6.38;3.53;;;;;;;25.16;63.69;94913.50;5053021;28;20212;-66
2022/08/11 08:20:18;;;;;;;4.05;3.75;;;;;;;25.03;60.68;94945.59;5054352;28;20196;-64
2022/08/11 08:22:47;;;;;;;4.20;3.65;;;;;;;24.84;60.95;94930.94;5053961;28;20186;-63
2022/08/11 08:25:13;;;;;;;6.72;3.58;;;;;;;25.12;59.65;94964.38;5053713;28;20204;-62
2022/08/11 08:27:42;;;;;;;4.50;3.40;;;;;;;25.32;59.04;94965.81;5053703;28;20243;-61
2022/08/11 08:32:56;;;;;;;3.85;3.55;;;;;;;25.47;58.54;94974.13;5054276;28;20232;-61
2022/08/11 08:35:22;;;;;;;4.38;3.80;;;;;;;25.65;59.25;94944.75;5053909;28;20194;-60
2022/08/11 08:37:50;;;;;;;3.95;3.63;;;;;;;25.93;58.34;94959.88;5035530;28;20217;-62
2022/08/11 08:40:16;;;;;;;4.85;3.92;;;;;;;25.94;56.52;95011.78;5053310;28;20182;-62
2022/08/11 08:42:50;;;;;;;4.85;4.05;;;;;;;25.97;56.17;94998.34;5053511;28;20682;-64
2022/08/11 08:45:17;;;;;;;4.45;3.60;;;;;;;25.79;59.36;94914.94;5035523;28;20273;-64
2022/08/11 08:47:47;;;;;;;3.85;3.55;;;;;;;25.87;58.86;94926.88;5035795;28;20644;-63
2022/08/11 08:50:18;;;;;;;4.13;3.75;;;;;;;25.65;58.29;94936.91;5053946;28;20639;-61
2022/08/11 08:52:53;;;;;;;5.05;3.38;;;;;;;25.93;58.87;94921.59;5053702;28;20272;-63
2022/08/11 08:55:20;;;;;;;5.93;4.25;;;;;;;25.72;57.89;94955.88;5053234;28;20185;-61
2022/08/11 08:57:49;;;;;;;4.00;3.70;;;;;;;25.97;59.79;94898.50;5053069;28;20217;-60
2022/08/11 09:00:16;;;;;;;5.57;4.18;;;;;;;26.31;60.30;94880.47;5052859;28;20189;-60
2022/08/11 09:02:43;;;;;;;5.35;4.13;;;;;;;26.58;58.14;94936.44;5053330;28;20198;-64
2022/08/11 09:05:09;;;;;;;7.68;3.97;;;;;;;26.64;58.36;94930.34;5052921;28;20592;-64
2022/08/11 09:07:41;;;;;;;6.10;3.70;;;;;;;26.83;57.58;94952.00;5034671;28;20644;-63
2022/08/11 09:10:09;;;;;;;3.65;3.35;;;;;;;27.05;54.47;95025.41;5053253;28;20268;-63
2022/08/11 09:12:38;;;;;;;7.00;3.63;;;;;;;27.32;53.13;95043.06;5053090;28;20273;-63
2022/08/11 09:15:06;;;;;;;4.63;3.22;;;;;;;26.78;53.20;95030.16;5035047;28;20551;-63
2022/08/11 09:17:45;;;;;;;4.43;3.83;;;;;;;26.89;53.02;95024.19;5053115;28;20686;-61
2022/08/11 09:20:12;;;;;;;5.72;4.20;;;;;;;26.73;54.83;94969.19;5052822;28;20185;-62
2022/08/11 09:28:15;;;;;;;5.78;4.10;;;;;;;26.73;54.51;94963.97;5052834;28;20252;-61
2022/08/11 09:30:42;;;;;;;4.30;4.00;;;;;;;26.69;54.29;94968.03;5052601;28;20217;-63
2022/08/11 09:33:11;;;;;;;4.00;3.65;;;;;;;27.12;54.99;94945.97;5035042;28;20197;-63
2022/08/11 09:35:41;;;;;;;4.30;3.90;;;;;;;27.01;52.83;95013.78;5052713;28;20214;-63
2022/08/11 09:40:54;;;;;;;4.75;3.80;;;;;;;27.81;49.68;95094.22;5052677;28;20205;-64
2022/08/11 09:46:05;;;;;;;3.58;3.28;;;;;;;28.52;47.80;95124.63;5052904;28;20701;-64
2022/08/11 09:48:37;;;;;;;6.05;3.53;;;;;;;28.79;49.70;95050.63;5052891;28;20193;-64
2022/08/11 09:51:04;;;;;;;6.45;3.85;;;;;;;29.20;47.66;95109.88;5052658;28;20279;-64
2022/08/11 09:53:39;;;;;;;3.72;3.42;;;;;;;28.23;46.83;95108.03;5052493;28;20271;-64
2022/08/11 09:58:55;;;;;;;4.45;3.70;;;;;;;26.03;51.83;94940.13;5052668;28;20626;-64
2022/08/11 10:01:28;;;;;;;4.32;3.92;;;;;;;26.00;53.35;94885.03;5052222;28;20218;-62
2022/08/11 10:03:59;;;;;;;4.70;4.20;;;;;;;25.95;55.80;94838.78;5052455;28;20264;-60
2022/08/11 10:09:14;;;;;;;4.50;4.00;;;;;;;27.76;52.07;94947.72;5052218;28;20586;-63
2022/08/11 10:11:41;;;;;;;4.28;3.92;;;;;;;28.07;49.86;95004.91;5034279;28;20232;-65
2022/08/11 10:16:54;;;;;;;7.00;3.78;;;;;;;28.92;48.51;95044.34;5052229;28;20365;-63
2022/08/11 10:19:20;;;;;;;4.20;3.80;;;;;;;28.92;47.74;95066.09;5050838;28;20255;-64
2022/08/11 10:27:26;;;;;;;4.85;4.35;;;;;;;28.27;48.48;95016.81;5052499;28;20220;-61
2022/08/11 10:35:24;;;;;;;4.50;4.10;;;;;;;28.26;51.05;94926.31;5051816;28;20264;-65
2022/08/11 10:37:51;;;;;;;5.25;4.75;;;;;;;28.86;49.60;94972.78;5052089;28;20729;-63
2022/08/11 10:40:21;;;;;;;4.38;4.03;;;;;;;28.90;46.83;95062.91;5051624;28;20280;-64
2022/08/11 10:43:09;;;;;;;5.88;3.83;;;;;;;29.35;46.76;95062.97;5051912;28;20560;-65
2022/08/11 10:48:36;;;;;;;4.93;4.35;;;;;;;28.18;48.25;94984.97;5052122;28;20180;-63
2022/08/11 10:51:12;;;;;;;5.47;4.07;;;;;;;28.24;47.43;95018.06;5052034;28;20224;-63
2022/08/11 10:59:13;;;;;;;4.07;3.67;;;;;;;28.83;47.02;95011.69;5051852;28;20188;-61
2022/08/11 11:01:42;;;;;;;4.35;3.97;;;;;;;29.89;46.92;95024.03;5033806;28;20220;-65
2022/08/11 11:04:15;;;;;;;3.83;3.53;;;;;;;30.31;43.25;95136.19;5033608;28;20197;-62
2022/08/11 11:07:03;;;;;;;4.00;3.47;;;;;;;28.93;44.19;95072.91;5051473;28;20210;-64
2022/08/11 11:09:43;;;;;;;4.13;3.65;;;;;;;29.70;43.04;95126.50;5051647;28;20181;-65
2022/08/11 11:18:00;;;;;;;5.18;3.63;;;;;;;30.09;41.60;95163.34;5051399;28;20236;-65
2022/08/11 11:20:48;;;;;;;3.50;3.20;;;;;;;29.96;40.15;95192.53;5051208;28;20214;-64
2022/08/11 11:23:27;;;;;;;3.67;3.38;;;;;;;30.06;41.22;95140.25;5037230;28;20205;-63
2022/08/11 11:26:10;;;;;;;4.60;3.22;;;;;;;30.66;40.96;95151.66;5051292;28;20221;-63
2022/08/11 11:28:53;;;;;;;4.72;2.90;;;;;;;29.96;41.93;95113.84;5051175;28;20197;-64
2022/08/11 11:31:22;;;;;;;4.43;3.83;;;;;;;29.30;41.87;95114.50;5032775;28;20225;-65
2022/08/11 11:34:09;;;;;;;4.05;3.75;;;;;;;29.13;43.07;95069.88;5051179;28;20194;-64
2022/08/11 11:36:47;;;;;;;5.93;3.83;;;;;;;29.83;41.35;95114.94;5051120;28;20776;-63
2022/08/11 11:39:19;;;;;;;3.75;3.15;;;;;;;29.99;40.84;95148.25;5050985;28;20191;-65
2022/08/11 11:41:47;;;;;;;5.55;3.50;;;;;;;30.33;41.50;95104.47;5033337;28;20640;-64
2022/08/11 11:44:14;;;;;;;4.28;3.40;;;;;;;30.46;42.58;95083.13;5050904;28;20208;-64
2022/08/11 11:46:41;;;;;;;4.03;3.72;;;;;;;31.13;41.65;95097.63;5051086;28;20300;-62
2022/08/11 11:49:08;;;;;;;6.97;3.70;;;;;;;29.94;44.63;94984.78;5050764;28;20201;-63
2022/08/11 11:51:36;;;;;;;5.15;3.80;;;;;;;30.82;44.10;95003.75;5050914;28;20210;-64
2022/08/11 11:54:03;;;;;;;6.03;3.40;;;;;;;30.67;44.68;94982.56;5050970;28;20188;-63
2022/08/11 11:56:30;;;;;;;3.92;3.53;;;;;;;29.97;45.94;94950.19;5032827;28;20224;-64
2022/08/11 12:01:42;;;;;;;5.00;3.70;;;;;;;29.20;47.59;94899.50;5050643;28;20693;-62
2022/08/11 12:04:10;;;;;;;4.65;3.35;;;;;;;29.77;46.87;94911.38;5050604;28;20189;-61
2022/08/11 12:06:36;;;;;;;6.40;3.45;;;;;;;29.95;45.81;94960.94;5050897;28;20236;-63
2022/08/11 12:09:03;;;;;;;4.70;3.78;;;;;;;30.88;44.48;94997.53;5032846;28;20194;-61
2022/08/11 12:14:20;;;;;;;4.68;3.47;;;;;;;31.37;41.66;95079.78;5050877;28;20258;-64
2022/08/11 12:16:47;;;;;;;5.78;3.85;;;;;;;31.83;40.53;95123.09;5032799;28;20600;-63
2022/08/11 12:19:33;;;;;;;4.97;3.85;;;;;;;31.48;41.35;95064.91;5050815;28;20197;-61
2022/08/11 12:27:30;;;;;;;5.03;3.20;;;;;;;30.02;44.11;94960.75;5051233;28;20216;-63
2022/08/11 12:30:10;;;;;;;6.85;3.92;;;;;;;29.83;45.44;94916.44;5050413;28;20182;-60
2022/08/11 12:32:38;;;;;;;7.45;3.70;;;;;;;28.55;48.23;94833.69;5050704;28;20201;-61
2022/08/11 12:35:05;;;;;;;5.63;3.60;;;;;;;28.72;48.12;94837.97;5050212;28;20240;-61
2022/08/11 12:37:35;;;;;;;4.55;3.40;;;;;;;27.94;51.27;94759.38;5050062;28;20224;-62
2022/08/11 12:45:40;;;;;;;4.50;3.33;;;;;;;27.45;52.31;94733.88;5054097;28;20240;-63
2022/08/11 12:53:54;;;;;;;4.05;3.67;;;;;;;28.36;49.38;94827.09;5054085;28;20200;-63
2022/08/11 13:04:58;;;;;;;4.18;3.05;;;;;;;27.96;52.07;94749.50;5053585;28;20250;-61
2022/08/11 13:07:25;;;;;;;5.53;3.10;;;;;;;28.22;52.64;94751.53;5053394;28;20313;-64
2022/08/11 13:09:52;;;;;;;4.22;3.83;;;;;;;28.30;52.50;94763.41;5053291;28;20186;-63
2022/08/11 13:15:04;;;;;;;5.28;3.03;;;;;;;27.12;55.95;94671.03;5053450;28;20658;-64
2022/08/11 13:17:30;;;;;;;5.07;3.10;;;;;;;27.49;54.13;94721.16;5035303;28;20209;-63
2022/08/11 13:20:01;;;;;;;3.60;3.30;;;;;;;27.80;54.03;94728.50;5053165;28;20196;-63
2022/08/11 13:22:28;;;;;;;6.30;3.25;;;;;;;28.05;53.09;94755.94;5035235;28;20221;-63
2022/08/11 13:24:56;;;;;;;2.95;2.63;;;;;;;28.14;52.75;94764.97;5053032;28;20194;-63
2022/08/11 13:27:22;;;;;;;3.30;2.95;;;;;;;28.22;53.30;94737.66;5052863;28;20359;-63
2022/08/11 13:29:49;;;;;;;3.53;3.20;;;;;;;27.39;52.80;94732.97;5052887;28;20201;-63
2022/08/11 13:32:15;;;;;;;3.70;3.30;;;;;;;28.47;51.42;94795.63;5051885;28;20711;-61
2022/08/11 13:34:42;;;;;;;4.30;2.85;;;;;;;28.95;49.74;94840.41;5035439;28;20644;-61
2022/08/11 13:37:10;;;;;;;4.32;2.67;;;;;;;28.87;49.63;94848.66;5053062;28;20306;-61
2022/08/11 13:39:36;;;;;;;4.70;3.15;;;;;;;28.95;48.09;94876.28;5052934;28;20185;-64
2022/08/11 13:42:04;;;;;;;3.38;3.08;;;;;;;28.55;49.35;94826.69;5053000;28;20307;-63
2022/08/11 13:44:32;;;;;;;2.80;2.50;;;;;;;28.84;48.50;94845.75;5052665;28;20287;-63
2022/08/11 13:47:07;;;;;;;4.13;3.10;;;;;;;29.13;49.34;94846.47;5052493;28;20214;-63
2022/08/11 13:49:37;;;;;;;6.38;3.38;;;;;;;29.82;45.61;94954.19;5052516;28;20659;-63
2022/08/11 13:52:05;;;;;;;3.53;3.00;;;;;;;30.37;44.28;94997.97;5052604;28;20291;-63
2022/08/11 13:54:34;;;;;;;4.07;3.00;;;;;;;30.44;44.09;94980.22;5052176;28;20190;-63
2022/08/11 13:57:03;;;;;;;4.03;2.97;;;;;;;30.48;42.80;95021.47;5052200;28;20217;-63
2022/08/11 13:59:29;;;;;;;2.97;2.65;;;;;;;30.76;42.27;95036.25;5052608;28;20200;-63
2022/08/11 14:02:02;;;;;;;3.22;3.03;;;;;;;31.13;41.71;95052.97;5052700;28;20216;-64
2022/08/11 14:04:47;;;;;;;3.05;2.70;;;;;;;30.96;41.09;95057.53;5052486;28;20200;-63
2022/08/11 14:07:19;;;;;;;3.03;2.78;;;;;;;31.45;39.31;95137.97;5052572;28;20292;-64
2022/08/11 14:09:45;;;;;;;3.17;2.75;;;;;;;31.71;39.09;95131.16;5052300;28;20192;-64
2022/08/11 14:15:31;;;;;;;3.53;2.80;;;;;;;32.05;37.79;95163.31;5052244;28;20266;-64
2022/08/11 14:18:03;;;;;;;3.55;2.85;;;;;;;32.08;38.08;95145.16;5052058;28;20234;-62
2022/08/11 14:23:27;;;;;;;3.25;2.78;;;;;;;31.93;37.26;95167.94;5051864;28;20640;-63
2022/08/11 14:28:40;;;;;;;2.67;2.47;;;;;;;31.30;37.53;95139.63;5051854;28;20204;-64
2022/08/11 14:31:07;;;;;;;2.85;2.60;;;;;;;31.50;37.54;95134.59;5033851;28;20205;-63
2022/08/11 14:33:34;;;;;;;2.85;2.60;;;;;;;31.82;36.64;95166.22;5052062;28;20185;-63
2022/08/11 14:36:04;;;;;;;3.05;2.60;;;;;;;31.15;37.41;95124.47;5051692;28;20213;-63
2022/08/11 14:38:33;;;;;;;3.92;3.17;;;;;;;31.32;37.38;95122.56;5051445;28;20678;-63
2022/08/11 14:49:13;;;;;;;3.53;2.75;;;;;;;31.63;37.57;95113.19;5051587;28;20188;-64
2022/08/11 14:52:00;;;;;;;3.35;2.78;;;;;;;32.13;36.79;95141.78;5051276;28;20197;-64
2022/08/11 14:57:15;;;;;;;7.20;3.92;;;;;;;32.39;36.95;95129.59;5051675;28;20224;-64
2022/08/11 14:59:42;;;;;;;6.63;4.70;;;;;;;32.19;39.03;95035.50;5052402;28;20182;-61
2022/08/11 15:04:54;;;;;;;3.97;3.42;;;;;;;32.23;38.91;95041.84;5051529;28;20232;-61
2022/08/11 15:07:28;;;;;;;3.85;3.55;;;;;;;32.35;38.24;95063.50;5052210;28;20213;-64
2022/08/11 15:09:56;;;;;;;6.65;3.10;;;;;;;32.53;37.62;95088.63;5051335;28;20193;-64
2022/08/11 15:12:23;;;;;;;3.10;2.90;;;;;;;31.86;38.50;95036.56;5051694;28;20679;-61
2022/08/11 15:17:34;;;;;;;3.22;2.90;;;;;;;30.97;40.96;94943.50;5051644;28;20286;-63
2022/08/11 15:25:37;;;;;;;3.35;3.00;;;;;;;30.12;42.41;94874.31;5051211;28;20224;-64
2022/08/11 15:39:30;;;;;;;5.65;3.25;;;;;;;28.49;45.63;94775.25;5051150;28;20385;-62
2022/08/11 15:47:56;;;;;;;6.57;3.10;;;;;;;27.24;48.49;94687.44;5051026;28;20263;-63
2022/08/11 15:50:28;;;;;;;6.40;3.63;;;;;;;27.19;49.05;94669.88;5057128;22;20221;-63
2022/08/11 15:53:09;;;;;;;4.88;3.42;;;;;;;27.19;50.48;94635.16;5033044;28;20667;-63
2022/08/11 15:55:37;;;;;;;6.78;3.15;;;;;;;26.90;50.56;94638.72;5051242;28;20197;-63
2022/08/11 16:06:34;;;;;;;4.32;3.35;;;;;;;26.27;51.83;94615.19;5050669;28;20247;-63
2022/08/11 16:09:04;;;;;;;8.80;5.95;;;;;;;26.13;52.32;94604.19;5050812;28;20566;-64
2022/08/11 16:11:33;;;;;;;4.35;2.55;;;;;;;26.13;52.38;94617.22;5050884;28;20585;-62
2022/08/11 16:16:51;;;;;;;6.18;3.65;;;;;;;26.27;52.99;94607.34;5052846;28;20235;-63
2022/08/11 16:19:19;;;;;;;5.55;4.00;;;;;;;26.31;53.00;94604.06;5054561;28;20189;-63
2022/08/11 16:21:49;;;;;;;4.85;3.45;;;;;;;26.30;52.87;94607.69;5054231;28;20209;-60
2022/08/11 16:24:18;;;;;;;4.75;3.10;;;;;;;26.19;53.19;94600.69;5054514;28;20193;-63
2022/08/11 16:26:45;;;;;;;5.47;3.38;;;;;;;26.01;53.32;94598.16;5057231;28;20216;-63
2022/08/11 16:29:21;;;;;;;3.65;3.13;;;;;;;25.81;54.11;94579.44;5057239;28;20247;-62
2022/08/11 16:32:15;;;;;;;4.50;3.70;;;;;;;25.82;53.99;94581.00;5054240;28;20686;-64
2022/08/11 16:40:08;;;;;;;4.75;3.83;;;;;;;25.89;53.56;94612.97;5053481;28;20666;-63
2022/08/11 16:48:15;;;;;;;4.32;3.38;;;;;;;25.51;54.89;94589.13;4999225;28;20203;-63
2022/08/11 16:50:41;;;;;;;4.72;4.07;;;;;;;25.55;55.01;94585.81;5035340;28;20671;-63
2022/08/11 16:53:07;;;;;;;4.88;3.55;;;;;;;25.82;54.48;94601.84;5035278;28;20185;-62
2022/08/11 16:55:33;;;;;;;5.35;3.20;;;;;;;25.84;54.44;94602.41;5035141;28;20667;-62
2022/08/11 17:00:44;;;;;;;5.85;4.22;;;;;;;26.26;52.84;94658.69;5053479;28;20294;-61
2022/08/11 17:14:31;;;;;;;12.73;7.93;;;;;;;25.85;54.24;94643.09;5053067;28;20201;-60
2022/08/11 17:16:59;;;;;;;5.93;4.45;;;;;;;25.85;53.29;94658.72;5052899;28;20210;-63
2022/08/11 17:19:30;;;;;;;6.47;4.00;;;;;;;25.78;52.82;94673.66;5052810;28;20212;-63
2022/08/11 17:24:46;;;;;;;4.28;3.08;;;;;;;25.44;55.29;94614.44;5053289;28;20550;-61
2022/08/11 17:27:18;;;;;;;3.50;3.20;;;;;;;25.31;54.96;94619.81;5052193;28;20205;-63
2022/08/11 17:29:53;;;;;;;7.00;3.05;;;;;;;25.17;55.73;94608.00;5053060;28;20200;-64